createdAt,value
2023-04-03T00:00:16.145Z,24.70
2023-04-03T00:01:16.150Z,24.68
2023-04-03T00:02:16.271Z,24.65
2023-04-03T00:03:16.315Z,24.70
2023-04-03T00:04:16.334Z,24.68
2023-04-03T00:05:16.355Z,24.68
2023-04-03T00:06:16.390Z,24.67
2023-04-03T00:07:16.394Z,24.67
2023-04-03T00:08:16.454Z,24.67
2023-04-03T00:09:16.515Z,24.67
2023-04-03T00:10:16.608Z,24.71
2023-04-03T00:11:16.542Z,24.68
2023-04-03T00:12:16.594Z,24.68
2023-04-03T00:13:16.612Z,24.68
2023-04-03T00:14:16.648Z,24.70
2023-04-03T00:15:16.707Z,24.68
2023-04-03T00:16:16.756Z,24.67
2023-04-03T00:17:16.783Z,24.67
2023-04-03T00:18:16.819Z,24.65
2023-04-03T00:19:16.852Z,24.65
2023-04-03T00:20:16.892Z,24.65
2023-04-03T00:21:16.904Z,24.71
2023-04-03T00:22:16.983Z,24.67
2023-04-03T00:23:17.016Z,24.68
2023-04-03T00:24:17.003Z,24.71
2023-04-03T00:25:17.076Z,24.67
2023-04-03T00:26:17.068Z,24.68
2023-04-03T00:27:17.155Z,24.68
2023-04-03T00:28:17.209Z,24.67
2023-04-03T00:29:17.290Z,24.68
2023-04-03T00:30:17.283Z,24.67
2023-04-03T00:31:17.357Z,24.65
2023-04-03T00:32:18.271Z,24.67
2023-04-03T00:33:17.395Z,24.65
2023-04-03T00:34:17.405Z,24.67
2023-04-03T00:35:17.467Z,24.67
2023-04-03T00:36:17.597Z,24.65
2023-04-03T00:37:17.580Z,24.68
2023-04-03T00:38:17.649Z,24.67
2023-04-03T00:39:17.641Z,24.65
2023-04-03T00:40:17.679Z,24.67
2023-04-03T00:41:17.674Z,24.67
2023-04-03T00:42:17.768Z,24.65
2023-04-03T00:43:17.818Z,24.67
2023-04-03T00:44:17.815Z,24.64
2023-04-03T00:45:17.883Z,24.65
2023-04-03T00:46:17.916Z,24.61
2023-04-03T00:47:17.930Z,24.65
2023-04-03T00:48:17.957Z,24.63
2023-04-03T00:49:18.025Z,24.64
2023-04-03T00:50:18.059Z,24.64
2023-04-03T00:51:18.132Z,24.63
2023-04-03T00:52:18.133Z,24.65
2023-04-03T00:53:18.151Z,24.63
2023-04-03T00:54:18.265Z,24.63
2023-04-03T00:55:18.265Z,24.67
2023-04-03T00:56:18.320Z,24.64
2023-04-03T00:57:18.405Z,24.65
2023-04-03T00:58:18.353Z,24.65
2023-04-03T00:59:18.403Z,24.63
2023-04-03T01:00:18.420Z,24.64
2023-04-03T01:01:18.443Z,24.65
2023-04-03T01:02:18.515Z,24.63
2023-04-03T01:03:18.534Z,24.61
2023-04-03T01:04:18.589Z,24.64
2023-04-03T01:05:18.611Z,24.67
2023-04-03T01:06:18.646Z,24.63
2023-04-03T01:07:18.678Z,24.64
2023-04-03T01:08:18.723Z,24.63
2023-04-03T01:09:19.772Z,24.63
2023-04-03T01:10:18.809Z,24.63
2023-04-03T01:11:18.838Z,24.64
2023-04-03T01:12:18.889Z,24.61
2023-04-03T01:13:18.893Z,24.64
2023-04-03T01:14:18.935Z,24.64
2023-04-03T01:15:18.971Z,24.63
2023-04-03T01:16:19.046Z,24.63
2023-04-03T01:17:19.048Z,24.63
2023-04-03T01:18:19.145Z,24.63
2023-04-03T01:19:19.157Z,24.63
2023-04-03T01:20:19.173Z,24.60
2023-04-03T01:21:19.239Z,24.61
2023-04-03T01:22:19.283Z,24.61
2023-04-03T01:23:19.302Z,24.61
2023-04-03T01:24:19.332Z,24.61
2023-04-03T01:25:19.387Z,24.60
2023-04-03T01:26:19.420Z,24.60
2023-04-03T01:27:19.454Z,24.61
2023-04-03T01:28:19.476Z,24.61
2023-04-03T01:29:19.512Z,24.58
2023-04-03T01:30:19.599Z,24.61
2023-04-03T01:31:19.665Z,24.60
2023-04-03T01:32:19.675Z,24.61
2023-04-03T01:33:19.710Z,24.60
2023-04-03T01:34:19.758Z,24.60
2023-04-03T01:35:19.772Z,24.60
2023-04-03T01:36:19.812Z,24.63
2023-04-03T01:37:19.889Z,24.60
2023-04-03T01:38:19.902Z,24.58
2023-04-03T01:39:19.939Z,24.61
2023-04-03T01:40:19.962Z,24.57
2023-04-03T01:41:20.015Z,24.60
2023-04-03T01:42:20.036Z,24.58
2023-04-03T01:43:20.068Z,24.60
2023-04-03T01:44:20.132Z,24.57
2023-04-03T01:45:20.136Z,24.58
2023-04-03T01:46:20.200Z,24.60
2023-04-03T01:47:20.282Z,24.63
2023-04-03T01:48:20.272Z,24.57
2023-04-03T01:49:20.322Z,24.58
2023-04-03T01:50:20.369Z,24.58
2023-04-03T01:51:20.403Z,24.58
2023-04-03T01:52:20.439Z,24.58
2023-04-03T01:53:20.491Z,24.58
2023-04-03T01:54:20.577Z,24.58
2023-04-03T01:55:20.565Z,24.58
2023-04-03T01:56:20.623Z,24.58
2023-04-03T01:57:20.694Z,24.57
2023-04-03T01:58:20.692Z,24.58
2023-04-03T01:59:20.749Z,24.56
2023-04-03T02:00:20.796Z,24.58
2023-04-03T02:01:20.934Z,24.58
2023-04-03T02:02:21.841Z,24.57
2023-04-03T02:03:20.775Z,24.58
2023-04-03T02:04:20.842Z,24.57
2023-04-03T02:05:20.781Z,24.57
2023-04-03T02:06:20.775Z,24.57
2023-04-03T02:07:20.791Z,24.56
2023-04-03T02:08:20.787Z,24.56
2023-04-03T02:09:20.766Z,24.56
2023-04-03T02:10:20.768Z,24.56
2023-04-03T02:11:20.775Z,24.56
2023-04-03T02:12:20.739Z,24.57
2023-04-03T02:13:20.741Z,24.54
2023-04-03T02:14:20.754Z,24.56
2023-04-03T02:15:20.800Z,24.57
2023-04-03T02:16:20.844Z,24.58
2023-04-03T02:17:20.899Z,24.56
2023-04-03T02:18:20.934Z,24.58
2023-04-03T02:19:20.985Z,24.57
2023-04-03T02:20:21.039Z,24.56
2023-04-03T02:21:21.094Z,24.57
2023-04-03T02:22:21.105Z,24.57
2023-04-03T02:23:21.165Z,24.58
2023-04-03T02:24:21.196Z,24.54
2023-04-03T02:25:21.224Z,24.56
2023-04-03T02:26:21.274Z,24.56
2023-04-03T02:27:21.307Z,24.54
2023-04-03T02:28:21.425Z,24.56
2023-04-03T02:29:21.461Z,24.56
2023-04-03T02:30:21.472Z,24.56
2023-04-03T02:31:21.564Z,24.56
2023-04-03T02:32:21.580Z,24.54
2023-04-03T02:33:21.615Z,24.54
2023-04-03T02:34:21.639Z,24.54
2023-04-03T02:35:21.726Z,24.54
2023-04-03T02:36:21.705Z,24.54
2023-04-03T02:37:21.810Z,24.54
2023-04-03T02:38:21.829Z,24.53
2023-04-03T02:39:21.874Z,24.54
2023-04-03T02:40:21.914Z,24.53
2023-04-03T02:41:21.967Z,24.53
2023-04-03T02:42:21.954Z,24.54
2023-04-03T02:43:22.018Z,24.53
2023-04-03T02:44:22.037Z,24.51
2023-04-03T02:45:22.127Z,24.51
2023-04-03T02:46:22.160Z,24.51
2023-04-03T02:47:22.264Z,24.53
2023-04-03T02:48:22.258Z,24.53
2023-04-03T02:49:22.281Z,24.51
2023-04-03T02:50:22.322Z,24.50
2023-04-03T02:51:22.381Z,24.54
2023-04-03T02:52:22.442Z,24.53
2023-04-03T02:53:22.438Z,24.54
2023-04-03T02:54:22.490Z,24.54
2023-04-03T02:55:22.567Z,24.51
2023-04-03T02:56:22.565Z,24.53
2023-04-03T02:57:22.680Z,24.51
2023-04-03T02:58:22.659Z,24.54
2023-04-03T02:59:22.742Z,24.53
2023-04-03T03:00:22.740Z,24.53
2023-04-03T03:01:22.799Z,24.53
2023-04-03T03:02:22.881Z,24.54
2023-04-03T03:03:22.845Z,24.54
2023-04-03T03:04:22.904Z,24.51
2023-04-03T03:05:22.981Z,24.53
2023-04-03T03:06:22.979Z,24.54
2023-04-03T03:07:23.069Z,24.53
2023-04-03T03:08:23.092Z,24.54
2023-04-03T03:09:23.164Z,24.51
2023-04-03T03:10:23.176Z,24.50
2023-04-03T03:11:23.202Z,24.54
2023-04-03T03:12:23.294Z,24.51
2023-04-03T03:13:23.292Z,24.51
2023-04-03T03:14:23.351Z,24.51
2023-04-03T03:15:23.392Z,24.51
2023-04-03T03:16:23.460Z,24.51
2023-04-03T03:17:23.491Z,24.50
2023-04-03T03:18:23.502Z,24.50
2023-04-03T03:19:23.557Z,24.53
2023-04-03T03:20:23.576Z,24.53
2023-04-03T03:21:23.625Z,24.51
2023-04-03T03:22:23.675Z,24.50
2023-04-03T03:23:23.723Z,24.50
2023-04-03T03:24:23.751Z,24.51
2023-04-03T03:25:23.806Z,24.53
2023-04-03T03:26:23.830Z,24.50
2023-04-03T03:27:23.871Z,24.50
2023-04-03T03:28:23.953Z,24.50
2023-04-03T03:29:23.972Z,24.48
2023-04-03T03:30:23.995Z,24.50
2023-04-03T03:31:24.105Z,24.50
2023-04-03T03:32:24.134Z,24.48
2023-04-03T03:33:24.823Z,24.48
2023-04-03T03:34:24.159Z,24.48
2023-04-03T03:35:24.238Z,24.50
2023-04-03T03:36:24.271Z,24.48
2023-04-03T03:37:24.277Z,24.50
2023-04-03T03:38:24.356Z,24.51
2023-04-03T03:39:24.395Z,24.50
2023-04-03T03:40:24.440Z,24.48
2023-04-03T03:41:24.444Z,24.50
2023-04-03T03:42:24.474Z,24.48
2023-04-03T03:43:24.586Z,24.48
2023-04-03T03:44:24.568Z,24.48
2023-04-03T03:45:24.646Z,24.47
2023-04-03T03:46:24.666Z,24.47
2023-04-03T03:47:24.775Z,24.50
2023-04-03T03:48:24.734Z,24.48
2023-04-03T03:49:24.824Z,24.48
2023-04-03T03:50:24.870Z,24.47
2023-04-03T03:51:24.893Z,24.50
2023-04-03T03:52:24.929Z,24.47
2023-04-03T03:53:24.962Z,24.47
2023-04-03T03:54:25.092Z,24.47
2023-04-03T03:55:25.066Z,24.48
2023-04-03T03:56:25.081Z,24.48
2023-04-03T03:57:25.160Z,24.48
2023-04-03T03:58:25.144Z,24.46
2023-04-03T03:59:25.217Z,24.47
2023-04-03T04:00:25.256Z,24.47
2023-04-03T04:01:25.282Z,24.48
2023-04-03T04:02:25.406Z,24.47
2023-04-03T04:03:25.434Z,24.46
2023-04-03T04:04:25.378Z,24.48
2023-04-03T04:05:25.452Z,24.47
2023-04-03T04:06:25.481Z,24.47
2023-04-03T04:07:25.537Z,24.47
2023-04-03T04:08:25.536Z,24.48
2023-04-03T04:09:25.635Z,24.47
2023-04-03T04:10:25.623Z,24.46
2023-04-03T04:11:25.668Z,24.47
2023-04-03T04:12:25.752Z,24.47
2023-04-03T04:13:25.753Z,24.46
2023-04-03T04:14:25.797Z,24.47
2023-04-03T04:15:25.826Z,24.50
2023-04-03T04:16:25.916Z,24.46
2023-04-03T04:17:25.987Z,24.44
2023-04-03T04:18:25.985Z,24.46
2023-04-03T04:19:26.005Z,24.46
2023-04-03T04:20:26.047Z,24.46
2023-04-03T04:21:26.094Z,24.46
2023-04-03T04:22:26.116Z,24.44
2023-04-03T04:23:26.145Z,24.46
2023-04-03T04:24:26.194Z,24.46
2023-04-03T04:25:26.261Z,24.44
2023-04-03T04:26:26.286Z,24.44
2023-04-03T04:27:26.320Z,24.46
2023-04-03T04:28:26.401Z,24.44
2023-04-03T04:29:26.403Z,24.44
2023-04-03T04:30:26.460Z,24.46
2023-04-03T04:31:26.508Z,24.46
2023-04-03T04:32:26.580Z,24.46
2023-04-03T04:33:26.583Z,24.44
2023-04-03T04:34:26.653Z,24.46
2023-04-03T04:35:26.655Z,24.46
2023-04-03T04:36:26.787Z,24.44
2023-04-03T04:37:26.768Z,24.44
2023-04-03T04:38:26.792Z,24.43
2023-04-03T04:39:26.843Z,24.46
2023-04-03T04:40:26.852Z,24.44
2023-04-03T04:41:26.917Z,24.44
2023-04-03T04:42:26.941Z,24.43
2023-04-03T04:43:27.005Z,24.43
2023-04-03T04:44:27.039Z,24.43
2023-04-03T04:45:27.103Z,24.46
2023-04-03T04:46:27.166Z,24.44
2023-04-03T04:47:27.214Z,24.43
2023-04-03T04:48:27.186Z,24.43
2023-04-03T04:49:27.244Z,24.43
2023-04-03T04:50:27.299Z,24.44
2023-04-03T04:51:28.434Z,24.43
2023-04-03T04:52:27.358Z,24.41
2023-04-03T04:53:27.302Z,24.43
2023-04-03T04:54:27.297Z,24.43
2023-04-03T04:55:27.290Z,24.43
2023-04-03T04:56:27.270Z,24.41
2023-04-03T04:57:27.369Z,24.41
2023-04-03T04:58:27.288Z,24.40
2023-04-03T04:59:27.271Z,24.41
2023-04-03T05:00:27.253Z,24.41
2023-04-03T05:01:27.288Z,24.40
2023-04-03T05:02:27.313Z,24.41
2023-04-03T05:03:27.266Z,24.41
2023-04-03T05:04:27.290Z,24.41
2023-04-03T05:05:27.234Z,24.44
2023-04-03T05:06:27.240Z,24.41
2023-04-03T05:07:27.205Z,24.41
2023-04-03T05:08:27.220Z,24.41
2023-04-03T05:09:27.228Z,24.40
2023-04-03T05:10:27.190Z,24.43
2023-04-03T05:11:27.191Z,24.43
2023-04-03T05:12:27.184Z,24.41
2023-04-03T05:13:27.185Z,24.41
2023-04-03T05:14:27.163Z,24.40
2023-04-03T05:15:27.134Z,24.41
2023-04-03T05:16:27.191Z,24.40
2023-04-03T05:17:27.228Z,24.40
2023-04-03T05:18:27.192Z,24.40
2023-04-03T05:19:27.140Z,24.40
2023-04-03T05:20:27.135Z,24.40
2023-04-03T05:21:27.156Z,24.39
2023-04-03T05:22:27.137Z,24.39
2023-04-03T05:23:27.127Z,24.39
2023-04-03T05:24:27.107Z,24.39
2023-04-03T05:25:27.087Z,24.40
2023-04-03T05:26:27.086Z,24.39
2023-04-03T05:27:27.097Z,24.37
2023-04-03T05:28:27.086Z,24.37
2023-04-03T05:29:27.091Z,24.41
2023-04-03T05:30:27.051Z,24.40
2023-04-03T05:31:27.149Z,24.37
2023-04-03T05:32:27.152Z,24.40
2023-04-03T05:33:27.259Z,24.41
2023-04-03T05:34:27.222Z,24.40
2023-04-03T05:35:27.259Z,24.40
2023-04-03T05:36:27.343Z,24.39
2023-04-03T05:37:27.370Z,24.39
2023-04-03T05:38:27.405Z,24.37
2023-04-03T05:39:27.466Z,24.37
2023-04-03T05:40:27.516Z,24.39
2023-04-03T05:41:27.568Z,24.41
2023-04-03T05:42:27.603Z,24.40
2023-04-03T05:43:27.641Z,24.39
2023-04-03T05:44:27.707Z,24.39
2023-04-03T05:45:27.777Z,24.39
2023-04-03T05:46:27.845Z,24.41
2023-04-03T05:47:27.891Z,24.37
2023-04-03T05:48:27.886Z,24.39
2023-04-03T05:49:27.942Z,24.39
2023-04-03T05:50:27.967Z,24.40
2023-04-03T05:51:28.052Z,24.36
2023-04-03T05:52:28.091Z,24.37
2023-04-03T05:53:28.183Z,24.39
2023-04-03T05:54:28.174Z,24.39
2023-04-03T05:55:28.230Z,24.40
2023-04-03T05:56:28.314Z,24.39
2023-04-03T05:57:28.385Z,24.37
2023-04-03T05:58:28.359Z,24.40
2023-04-03T05:59:28.413Z,24.39
2023-04-03T06:00:28.449Z,24.37
2023-04-03T06:01:28.509Z,24.39
2023-04-03T06:02:28.604Z,24.37
2023-04-03T06:03:28.828Z,24.39
2023-04-03T06:04:28.785Z,24.39
2023-04-03T06:05:28.752Z,24.37
2023-04-03T06:06:28.797Z,24.40
2023-04-03T06:07:28.834Z,24.40
2023-04-03T06:08:28.882Z,24.40
2023-04-03T06:09:28.922Z,24.40
2023-04-03T06:10:29.046Z,24.41
2023-04-03T06:11:29.056Z,24.39
2023-04-03T06:12:29.153Z,24.39
2023-04-03T06:13:29.124Z,24.37
2023-04-03T06:14:29.174Z,24.40
2023-04-03T06:15:29.249Z,24.40
2023-04-03T06:16:29.301Z,24.37
2023-04-03T06:17:29.379Z,24.40
2023-04-03T06:18:29.410Z,24.39
2023-04-03T06:19:29.422Z,24.40
2023-04-03T06:20:29.491Z,24.39
2023-04-03T06:21:29.576Z,24.40
2023-04-03T06:22:29.617Z,24.40
2023-04-03T06:23:29.646Z,24.40
2023-04-03T06:24:29.677Z,24.40
2023-04-03T06:25:29.768Z,24.41
2023-04-03T06:26:29.801Z,24.43
2023-04-03T06:27:29.839Z,24.40
2023-04-03T06:28:29.888Z,24.40
2023-04-03T06:29:29.955Z,24.41
2023-04-03T06:30:29.996Z,24.41
2023-04-03T06:31:30.191Z,24.43
2023-04-03T06:32:30.148Z,24.43
2023-04-03T06:33:30.124Z,24.41
2023-04-03T06:34:30.182Z,24.40
2023-04-03T06:35:30.243Z,24.40
2023-04-03T06:36:30.257Z,24.41
2023-04-03T06:37:30.370Z,24.39
2023-04-03T06:38:30.365Z,24.41
2023-04-03T06:39:30.456Z,24.41
2023-04-03T06:40:30.490Z,24.41
2023-04-03T06:41:30.555Z,24.41
2023-04-03T06:42:30.597Z,24.43
2023-04-03T06:43:31.758Z,24.40
2023-04-03T06:44:30.721Z,24.40
2023-04-03T06:45:30.742Z,24.43
2023-04-03T06:46:30.815Z,24.40
2023-04-03T06:47:30.951Z,24.40
2023-04-03T06:48:30.915Z,24.43
2023-04-03T06:49:30.988Z,24.43
2023-04-03T06:50:31.019Z,24.43
2023-04-03T06:51:31.074Z,24.40
2023-04-03T06:52:31.129Z,24.41
2023-04-03T06:53:31.190Z,24.44
2023-04-03T06:54:31.202Z,24.44
2023-04-03T06:55:31.252Z,24.41
2023-04-03T06:56:31.283Z,24.41
2023-04-03T06:57:31.433Z,24.40
2023-04-03T06:58:31.385Z,24.41
2023-04-03T06:59:31.450Z,24.40
2023-04-03T07:00:31.505Z,24.43
2023-04-03T07:01:31.583Z,24.41
2023-04-03T07:02:31.650Z,24.41
2023-04-03T07:03:32.392Z,24.40
2023-04-03T07:04:31.730Z,24.41
2023-04-03T07:05:31.776Z,24.43
2023-04-03T07:06:31.835Z,24.43
2023-04-03T07:07:31.846Z,24.43
2023-04-03T07:08:32.014Z,24.41
2023-04-03T07:09:31.966Z,24.41
2023-04-03T07:10:32.036Z,24.40
2023-04-03T07:11:32.044Z,24.41
2023-04-03T07:12:32.137Z,24.41
2023-04-03T07:13:32.197Z,24.43
2023-04-03T07:14:32.252Z,24.43
2023-04-03T07:15:32.280Z,24.44
2023-04-03T07:16:33.489Z,24.40
2023-04-03T07:17:32.400Z,24.41
2023-04-03T07:18:32.423Z,24.43
2023-04-03T07:19:32.468Z,24.41
2023-04-03T07:20:32.535Z,24.43
2023-04-03T07:21:32.567Z,24.44
2023-04-03T07:22:32.626Z,24.43
2023-04-03T07:23:32.654Z,24.40
2023-04-03T07:24:32.673Z,24.44
2023-04-03T07:25:32.744Z,24.46
2023-04-03T07:26:32.801Z,24.43
2023-04-03T07:27:32.840Z,24.41
2023-04-03T07:28:32.850Z,24.43
2023-04-03T07:29:32.892Z,24.44
2023-04-03T07:30:32.941Z,24.41
2023-04-03T07:31:33.004Z,24.43
2023-04-03T07:32:33.069Z,24.46
2023-04-03T07:33:33.043Z,24.46
2023-04-03T07:34:33.116Z,24.44
2023-04-03T07:35:33.234Z,24.44
2023-04-03T07:36:33.180Z,24.43
2023-04-03T07:37:33.215Z,24.43
2023-04-03T07:38:33.284Z,24.43
2023-04-03T07:39:33.325Z,24.43
2023-04-03T07:40:33.356Z,24.44
2023-04-03T07:41:33.407Z,24.43
2023-04-03T07:42:33.470Z,24.44
2023-04-03T07:43:33.470Z,24.47
2023-04-03T07:44:33.504Z,24.46
2023-04-03T07:45:33.597Z,24.44
2023-04-03T07:46:33.593Z,24.46
2023-04-03T07:47:33.692Z,24.46
2023-04-03T07:48:33.659Z,24.46
2023-04-03T07:49:33.728Z,24.44
2023-04-03T07:50:33.782Z,24.46
2023-04-03T07:51:33.832Z,24.44
2023-04-03T07:52:33.879Z,24.46
2023-04-03T07:53:33.903Z,24.46
2023-04-03T07:54:33.944Z,24.44
2023-04-03T07:55:35.013Z,24.48
2023-04-03T07:56:34.036Z,24.47
2023-04-03T07:57:34.082Z,24.47
2023-04-03T07:58:34.152Z,24.44
2023-04-03T07:59:34.174Z,24.47
2023-04-03T08:00:34.235Z,24.46
2023-04-03T08:01:34.238Z,24.44
2023-04-03T08:02:34.289Z,24.47
2023-04-03T08:03:34.484Z,24.46
2023-04-03T08:04:34.438Z,24.46
2023-04-03T08:05:34.380Z,24.48
2023-04-03T08:06:45.972Z,24.44
2023-04-03T08:07:35.428Z,24.48
2023-04-03T08:08:34.425Z,24.47
2023-04-03T08:09:34.420Z,24.47
2023-04-03T08:10:34.384Z,24.48
2023-04-03T08:11:34.438Z,24.48
2023-04-03T08:12:34.431Z,24.47
2023-04-03T08:13:34.389Z,24.47
2023-04-03T08:14:34.384Z,24.47
2023-04-03T08:15:34.461Z,24.47
2023-04-03T08:16:34.399Z,24.47
2023-04-03T08:17:34.389Z,24.47
2023-04-03T08:18:34.345Z,24.50
2023-04-03T08:19:34.380Z,24.48
2023-04-03T08:20:34.440Z,24.47
2023-04-03T08:21:34.450Z,24.48
2023-04-03T08:22:34.501Z,24.50
2023-04-03T08:23:34.588Z,24.51
2023-04-03T08:24:35.288Z,24.50
2023-04-03T08:25:34.629Z,24.51
2023-04-03T08:26:34.667Z,24.51
2023-04-03T08:27:34.743Z,24.51
2023-04-03T08:28:34.719Z,24.51
2023-04-03T08:29:34.880Z,24.53
2023-04-03T08:30:34.930Z,24.48
2023-04-03T08:31:34.869Z,24.50
2023-04-03T08:32:34.957Z,24.50
2023-04-03T08:33:34.981Z,24.51
2023-04-03T08:34:35.006Z,24.53
2023-04-03T08:35:37.552Z,24.53
2023-04-03T08:36:35.074Z,24.51
2023-04-03T08:37:35.027Z,24.53
2023-04-03T08:38:35.049Z,24.53
2023-04-03T08:39:35.035Z,24.54
2023-04-03T08:40:35.037Z,24.53
2023-04-03T08:41:35.005Z,24.51
2023-04-03T08:42:34.999Z,24.54
2023-04-03T08:43:35.000Z,24.54
2023-04-03T08:44:34.996Z,24.56
2023-04-03T08:45:35.087Z,24.57
2023-04-03T08:46:35.036Z,24.56
2023-04-03T08:47:35.003Z,24.58
2023-04-03T08:48:34.952Z,24.57
2023-04-03T08:49:34.943Z,24.61
2023-04-03T08:50:36.049Z,24.58
2023-04-03T08:51:34.936Z,24.58
2023-04-03T08:52:34.923Z,24.60
2023-04-03T08:53:34.932Z,24.61
2023-04-03T08:54:35.344Z,24.61
2023-04-03T08:55:35.041Z,24.60
2023-04-03T08:56:34.943Z,24.60
2023-04-03T08:57:34.944Z,24.63
2023-04-03T08:58:34.886Z,24.64
2023-04-03T08:59:34.868Z,24.60
2023-04-03T09:00:34.918Z,24.61
2023-04-03T09:01:34.869Z,24.61
2023-04-03T09:02:34.916Z,24.63
2023-04-03T09:03:34.880Z,24.61
2023-04-03T09:04:34.840Z,24.61
2023-04-03T09:05:34.948Z,24.63
2023-04-03T09:06:34.855Z,24.60
2023-04-03T09:07:34.856Z,24.63
2023-04-03T09:08:34.822Z,24.61
2023-04-03T09:09:34.837Z,24.61
2023-04-03T09:10:34.813Z,24.61
2023-04-03T09:11:34.856Z,24.61
2023-04-03T09:12:34.773Z,24.61
2023-04-03T09:13:34.817Z,24.61
2023-04-03T09:14:34.854Z,24.63
2023-04-03T09:15:38.958Z,24.63
2023-04-03T09:16:35.076Z,24.63
2023-04-03T09:17:34.897Z,24.63
2023-04-03T09:18:34.886Z,24.61
2023-04-03T09:19:34.918Z,24.63
2023-04-03T09:20:34.926Z,24.63
2023-04-03T09:21:34.863Z,24.64
2023-04-03T09:22:41.860Z,24.64
2023-04-03T09:23:35.850Z,24.63
2023-04-03T09:24:34.842Z,24.64
2023-04-03T09:25:34.817Z,24.64
2023-04-03T09:26:34.824Z,24.65
2023-04-03T09:27:34.909Z,24.64
2023-04-03T09:28:42.590Z,24.64
2023-04-03T09:29:35.808Z,24.65
2023-04-03T09:30:34.808Z,24.65
2023-04-03T09:31:34.837Z,24.64
2023-04-03T09:32:34.777Z,24.65
2023-04-03T09:33:34.777Z,24.65
2023-04-03T09:34:34.754Z,24.63
2023-04-03T09:35:44.872Z,24.63
2023-04-03T09:36:35.772Z,24.64
2023-04-03T09:37:34.736Z,24.63
2023-04-03T09:38:34.745Z,24.63
2023-04-03T09:39:34.718Z,24.64
2023-04-03T09:40:34.766Z,24.65
2023-04-03T09:41:34.729Z,24.64
2023-04-03T09:42:34.739Z,24.64
2023-04-03T09:43:34.808Z,24.64
2023-04-03T09:44:34.679Z,24.64
2023-04-03T09:45:34.693Z,24.64
2023-04-03T09:46:34.718Z,24.64
2023-04-03T09:47:34.810Z,24.64
2023-04-03T09:48:34.681Z,24.64
2023-04-03T09:49:34.648Z,24.65
2023-04-03T09:50:34.660Z,24.67
2023-04-03T09:51:34.667Z,24.67
2023-04-03T09:52:34.703Z,24.65
2023-04-03T09:53:34.748Z,24.64
2023-04-03T09:54:34.751Z,24.67
2023-04-03T09:55:34.783Z,24.64
2023-04-03T09:56:34.843Z,24.67
2023-04-03T09:57:34.926Z,24.67
2023-04-03T09:58:43.137Z,24.64
2023-04-03T09:59:35.979Z,24.64
2023-04-03T10:00:35.021Z,24.64
2023-04-03T10:01:35.013Z,24.65
2023-04-03T10:02:34.893Z,24.65
2023-04-03T10:03:34.853Z,24.65
2023-04-03T10:04:34.974Z,24.65
2023-04-03T10:05:34.831Z,24.67
2023-04-03T10:06:34.850Z,24.67
2023-04-03T10:07:34.853Z,24.65
2023-04-03T10:08:34.860Z,24.65
2023-04-03T10:09:34.830Z,24.65
2023-04-03T10:10:34.810Z,24.65
2023-04-03T10:11:34.820Z,24.68
2023-04-03T10:12:34.822Z,24.67
2023-04-03T10:13:45.197Z,24.67
2023-04-03T10:14:35.836Z,24.65
2023-04-03T10:15:34.883Z,24.65
2023-04-03T10:16:34.816Z,24.65
2023-04-03T10:17:34.798Z,24.65
2023-04-03T10:18:34.828Z,24.70
2023-04-03T10:19:34.761Z,24.67
2023-04-03T10:20:34.770Z,24.68
2023-04-03T10:21:34.725Z,24.68
2023-04-03T10:22:34.720Z,24.68
2023-04-03T10:23:34.715Z,24.68
2023-04-03T10:24:34.744Z,24.70
2023-04-03T10:25:34.719Z,24.71
2023-04-03T10:26:34.740Z,24.70
2023-04-03T10:27:34.734Z,24.70
2023-04-03T10:28:34.687Z,24.70
2023-04-03T10:29:34.687Z,24.72
2023-04-03T10:30:34.763Z,24.70
2023-04-03T10:31:34.879Z,24.71
2023-04-03T10:32:34.733Z,24.71
2023-04-03T10:33:34.773Z,24.71
2023-04-03T10:34:34.802Z,24.72
2023-04-03T10:35:34.840Z,24.74
2023-04-03T10:36:34.830Z,24.74
2023-04-03T10:37:34.899Z,24.72
2023-04-03T10:38:34.934Z,24.74
2023-04-03T10:39:34.938Z,24.72
2023-04-03T10:40:35.032Z,24.74
2023-04-03T10:41:34.987Z,24.72
2023-04-03T10:42:35.012Z,24.72
2023-04-03T10:43:35.043Z,24.72
2023-04-03T10:44:35.104Z,24.74
2023-04-03T10:45:35.103Z,24.75
2023-04-03T10:46:35.178Z,24.74
2023-04-03T10:47:37.199Z,24.72
2023-04-03T10:48:35.188Z,24.72
2023-04-03T10:49:35.124Z,24.75
2023-04-03T10:50:35.143Z,24.72
2023-04-03T10:51:35.125Z,24.72
2023-04-03T10:52:35.114Z,24.75
2023-04-03T10:53:35.129Z,24.75
2023-04-03T10:54:35.127Z,24.75
2023-04-03T10:55:35.115Z,24.75
2023-04-03T10:56:35.096Z,24.75
2023-04-03T10:57:35.120Z,24.74
2023-04-03T10:58:35.110Z,24.74
2023-04-03T10:59:35.087Z,24.75
2023-04-03T11:00:35.246Z,24.75
2023-04-03T11:01:35.117Z,24.77
2023-04-03T11:02:35.187Z,24.77
2023-04-03T11:03:35.235Z,24.77
2023-04-03T11:04:35.045Z,24.78
2023-04-03T11:05:35.047Z,24.78
2023-04-03T11:06:35.044Z,24.77
2023-04-03T11:07:35.014Z,24.77
2023-04-03T11:08:35.055Z,24.79
2023-04-03T11:09:35.022Z,24.78
2023-04-03T11:10:35.027Z,24.77
2023-04-03T11:11:35.002Z,24.75
2023-04-03T11:12:34.995Z,24.77
2023-04-03T11:13:35.095Z,24.75
2023-04-03T11:14:34.959Z,24.75
2023-04-03T11:15:35.016Z,24.77
2023-04-03T11:16:43.574Z,24.77
2023-04-03T11:17:36.091Z,24.77
2023-04-03T11:18:34.943Z,24.78
2023-04-03T11:19:35.030Z,24.78
2023-04-03T11:20:34.942Z,24.79
2023-04-03T11:21:34.959Z,24.77
2023-04-03T11:22:34.908Z,24.79
2023-04-03T11:23:45.944Z,24.77
2023-04-03T11:24:35.940Z,24.79
2023-04-03T11:25:34.912Z,24.78
2023-04-03T11:26:34.909Z,24.78
2023-04-03T11:27:34.887Z,24.77
2023-04-03T11:28:34.913Z,24.77
2023-04-03T11:29:35.941Z,24.77
2023-04-03T11:30:34.881Z,24.75
2023-04-03T11:31:34.916Z,24.75
2023-04-03T11:32:34.877Z,24.77
2023-04-03T11:33:34.900Z,24.77
2023-04-03T11:34:34.884Z,24.74
2023-04-03T11:35:34.950Z,24.75
2023-04-03T11:36:35.757Z,24.74
2023-04-03T11:37:34.874Z,24.75
2023-04-03T11:38:34.826Z,24.74
2023-04-03T11:39:34.859Z,24.75
2023-04-03T11:40:34.801Z,24.77
2023-04-03T11:41:34.847Z,24.75
2023-04-03T11:42:34.850Z,24.75
2023-04-03T11:43:34.807Z,24.75
2023-04-03T11:44:34.801Z,24.77
2023-04-03T11:45:34.760Z,24.77
2023-04-03T11:46:34.857Z,24.77
2023-04-03T11:47:34.751Z,24.77
2023-04-03T11:48:34.804Z,24.78
2023-04-03T11:49:34.746Z,24.77
2023-04-03T11:50:34.761Z,24.77
2023-04-03T11:51:34.829Z,24.78
2023-04-03T11:52:34.707Z,24.74
2023-04-03T11:53:34.721Z,24.75
2023-04-03T11:54:42.177Z,24.72
2023-04-03T11:55:35.838Z,24.77
2023-04-03T11:56:34.707Z,24.75
2023-04-03T11:57:34.764Z,24.75
2023-04-03T11:58:34.713Z,24.77
2023-04-03T11:59:34.693Z,24.77
2023-04-03T12:00:34.653Z,24.75
2023-04-03T12:01:34.682Z,24.77
2023-04-03T12:02:41.139Z,24.77
2023-04-03T12:03:35.795Z,24.78
2023-04-03T12:04:34.790Z,24.74
2023-04-03T12:05:34.752Z,24.75
2023-04-03T12:06:34.667Z,24.75
2023-04-03T12:07:34.736Z,24.77
2023-04-03T12:08:34.634Z,24.75
2023-04-03T12:09:34.625Z,24.77
2023-04-03T12:10:34.628Z,24.75
2023-04-03T12:11:34.623Z,24.74
2023-04-03T12:12:34.611Z,24.75
2023-04-03T12:13:34.570Z,24.75
2023-04-03T12:14:34.573Z,24.74
2023-04-03T12:15:34.574Z,24.74
2023-04-03T12:16:34.594Z,24.75
2023-04-03T12:17:34.603Z,24.77
2023-04-03T12:18:34.575Z,24.74
2023-04-03T12:19:42.379Z,24.75
2023-04-03T12:20:35.520Z,24.74
2023-04-03T12:21:35.524Z,24.75
2023-04-03T12:22:34.524Z,24.75
2023-04-03T12:23:34.591Z,24.74
2023-04-03T12:24:34.508Z,24.72
2023-04-03T12:25:34.499Z,24.72
2023-04-03T12:26:45.562Z,24.75
2023-04-03T12:27:35.496Z,24.75
2023-04-03T12:28:34.467Z,24.75
2023-04-03T12:29:34.584Z,24.74
2023-04-03T12:30:34.468Z,24.72
2023-04-03T12:31:34.509Z,24.77
2023-04-03T12:32:34.506Z,24.74
2023-04-03T12:33:34.504Z,24.74
2023-04-03T12:34:34.420Z,24.74
2023-04-03T12:35:34.459Z,24.72
2023-04-03T12:36:34.449Z,24.74
2023-04-03T12:37:34.427Z,24.75
2023-04-03T12:38:34.435Z,24.74
2023-04-03T12:39:34.484Z,24.74
2023-04-03T12:40:34.384Z,24.72
2023-04-03T12:41:34.373Z,24.74
2023-04-03T12:42:34.370Z,24.74
2023-04-03T12:43:34.405Z,24.74
2023-04-03T12:44:34.374Z,24.74
2023-04-03T12:45:34.424Z,24.72
2023-04-03T12:46:34.488Z,24.74
2023-04-03T12:47:34.526Z,24.75
2023-04-03T12:48:34.365Z,24.75
2023-04-03T12:49:34.397Z,24.72
2023-04-03T12:50:34.413Z,24.74
2023-04-03T12:51:34.441Z,24.74
2023-04-03T12:52:34.432Z,24.74